createdAt,value
2017-09-28T00:00:19.274Z,6.33
2017-09-28T00:02:48.377Z,7.32
2017-09-28T00:05:17.506Z,7.20
2017-09-28T00:07:45.837Z,7.20
2017-09-28T00:10:14.197Z,7.40
2017-09-28T00:12:42.528Z,6.30
2017-09-28T00:15:10.872Z,5.97
2017-09-28T00:17:39.244Z,5.37
2017-09-28T00:20:07.584Z,4.95
2017-09-28T00:22:35.962Z,5.20
2017-09-28T00:25:04.298Z,6.40
2017-09-28T00:27:33.412Z,5.95
2017-09-28T00:30:02.554Z,5.63
2017-09-28T00:32:30.885Z,7.13
2017-09-28T00:35:00.029Z,6.73
2017-09-28T00:37:28.363Z,5.80
2017-09-28T00:39:57.477Z,6.60
2017-09-28T00:42:25.849Z,5.07
2017-09-28T00:44:54.947Z,5.73
2017-09-28T00:47:24.085Z,6.07
2017-09-28T00:49:52.422Z,6.57
2017-09-28T00:52:21.556Z,5.20
2017-09-28T00:54:49.887Z,8.13
2017-09-28T00:57:19.026Z,10.47
2017-09-28T00:59:47.359Z,7.40
2017-09-28T01:02:15.690Z,5.30
2017-09-28T01:04:44.071Z,5.80
2017-09-28T01:07:12.405Z,5.80
2017-09-28T01:09:41.538Z,8.13
2017-09-28T01:12:09.867Z,5.67
2017-09-28T01:14:39.320Z,4.80
2017-09-28T01:17:07.692Z,4.90
2017-09-28T01:19:36.037Z,6.07
2017-09-28T01:22:04.402Z,4.80
2017-09-28T01:24:32.733Z,5.10
2017-09-28T01:27:01.836Z,5.17
2017-09-28T01:29:30.193Z,4.33
2017-09-28T01:31:59.297Z,4.77
2017-09-28T01:34:28.436Z,5.45
2017-09-28T01:36:56.771Z,7.20
2017-09-28T01:39:25.869Z,5.00
2017-09-28T01:41:55.001Z,4.30
2017-09-28T01:44:23.331Z,7.90
2017-09-28T01:46:51.687Z,5.18
2017-09-28T01:49:20.033Z,5.00
2017-09-28T01:51:48.429Z,4.00
2017-09-28T01:54:16.760Z,4.70
2017-09-28T01:56:45.096Z,4.90
2017-09-28T01:59:13.452Z,5.00
2017-09-28T02:01:41.799Z,5.23
2017-09-28T02:04:10.162Z,4.80
2017-09-28T02:06:38.496Z,5.20
2017-09-28T02:09:06.828Z,6.63
2017-09-28T02:11:35.180Z,6.13
2017-09-28T02:14:03.515Z,5.03
2017-09-28T02:16:32.648Z,4.70
2017-09-28T02:19:00.979Z,4.67
2017-09-28T02:21:29.314Z,4.93
2017-09-28T02:23:57.671Z,6.70
2017-09-28T02:26:26.043Z,5.73
2017-09-28T02:28:54.412Z,6.78
2017-09-28T02:31:23.520Z,4.70
2017-09-28T02:33:52.616Z,5.60
2017-09-28T02:36:21.846Z,4.80
2017-09-28T02:38:50.180Z,4.90
2017-09-28T02:41:19.325Z,5.10
2017-09-28T02:43:47.655Z,5.32
2017-09-28T02:46:15.996Z,5.80
2017-09-28T02:48:45.390Z,5.17
2017-09-28T02:51:13.728Z,4.83
2017-09-28T02:53:42.852Z,5.07
2017-09-28T02:56:11.183Z,6.20
2017-09-28T02:58:39.543Z,4.17
2017-09-28T03:01:07.875Z,5.27
2017-09-28T03:03:36.969Z,4.13
2017-09-28T03:06:06.107Z,5.47
2017-09-28T03:08:34.438Z,5.00
2017-09-28T03:11:03.565Z,4.23
2017-09-28T03:13:31.893Z,4.23
2017-09-28T03:16:00.234Z,7.10
2017-09-28T03:18:28.592Z,6.50
2017-09-28T03:20:57.694Z,5.03
2017-09-28T03:23:26.819Z,5.20
2017-09-28T03:25:55.147Z,5.23
2017-09-28T03:28:23.481Z,6.20
2017-09-28T03:30:51.836Z,5.78
2017-09-28T03:33:20.172Z,5.43
2017-09-28T03:35:48.536Z,5.70
2017-09-28T03:38:16.875Z,5.70
2017-09-28T03:40:45.208Z,4.90
2017-09-28T03:43:13.581Z,6.22
2017-09-28T03:45:41.912Z,6.13
2017-09-28T03:48:11.009Z,5.00
2017-09-28T03:50:40.144Z,6.43
2017-09-28T03:53:08.484Z,6.30
2017-09-28T03:55:37.585Z,6.10
2017-09-28T03:58:06.704Z,4.80
2017-09-28T04:00:35.032Z,6.60
2017-09-28T04:03:03.365Z,5.22
2017-09-28T04:05:31.734Z,8.90
2017-09-28T04:08:00.069Z,9.23
2017-09-28T04:10:28.432Z,6.23
2017-09-28T04:12:56.792Z,7.85
2017-09-28T04:15:25.123Z,6.47
2017-09-28T04:17:53.484Z,6.80
2017-09-28T04:20:21.833Z,5.90
2017-09-28T04:22:50.177Z,5.63
2017-09-28T04:25:19.305Z,6.47
2017-09-28T04:27:47.641Z,6.53
2017-09-28T04:30:16.748Z,8.27
2017-09-28T04:32:45.876Z,10.47
2017-09-28T04:35:14.215Z,5.60
2017-09-28T04:37:42.555Z,5.27
2017-09-28T04:40:10.910Z,5.80
2017-09-28T04:42:39.244Z,4.87
2017-09-28T04:45:07.576Z,6.10
2017-09-28T04:47:35.967Z,6.57
2017-09-28T04:50:04.294Z,4.40
2017-09-28T04:52:32.631Z,4.50
2017-09-28T04:55:00.997Z,5.78
2017-09-28T04:57:29.344Z,5.73
2017-09-28T04:59:58.448Z,5.40
2017-09-28T05:02:27.672Z,5.70
2017-09-28T05:04:56.004Z,4.65
2017-09-28T05:07:24.423Z,4.90
2017-09-28T05:09:53.521Z,5.40
2017-09-28T05:12:22.624Z,5.40
2017-09-28T05:14:50.988Z,5.10
2017-09-28T05:17:20.104Z,5.80
2017-09-28T05:19:48.456Z,5.50
2017-09-28T05:22:17.579Z,7.70
2017-09-28T05:24:45.928Z,6.20
2017-09-28T05:27:14.279Z,5.57
2017-09-28T05:29:42.629Z,6.70
2017-09-28T05:32:10.995Z,5.73
2017-09-28T05:34:40.099Z,5.73
2017-09-28T05:37:08.448Z,5.70
2017-09-28T05:39:36.815Z,4.80
2017-09-28T05:42:05.144Z,4.73
2017-09-28T05:44:33.506Z,4.80
2017-09-28T05:47:02.613Z,5.80
2017-09-28T05:49:31.717Z,5.00
2017-09-28T05:52:00.069Z,4.47
2017-09-28T05:54:28.405Z,5.27
2017-09-28T05:56:56.763Z,5.60
2017-09-28T05:59:25.107Z,6.67
2017-09-28T06:01:53.456Z,6.43
2017-09-28T06:04:21.828Z,5.90
2017-09-28T06:06:52.197Z,5.77
2017-09-28T06:09:20.680Z,6.50
2017-09-28T06:11:49.105Z,7.20
2017-09-28T06:14:17.450Z,7.30
2017-09-28T06:16:46.579Z,5.87
2017-09-28T06:19:14.932Z,6.97
2017-09-28T06:21:44.065Z,6.70
2017-09-28T06:24:12.395Z,8.00
2017-09-28T06:26:40.752Z,5.30
2017-09-28T06:29:09.127Z,6.10
2017-09-28T06:31:37.460Z,7.40
2017-09-28T06:34:06.586Z,6.10
2017-09-28T06:36:34.940Z,6.50
2017-09-28T06:39:04.075Z,6.33
2017-09-28T06:41:32.452Z,5.77
2017-09-28T06:44:01.560Z,6.50
2017-09-28T06:46:29.923Z,5.50
2017-09-28T06:48:58.267Z,5.85
2017-09-28T06:51:27.382Z,6.60
2017-09-28T06:53:55.740Z,8.63
2017-09-28T06:56:24.865Z,7.87
2017-09-28T06:58:53.520Z,6.50
2017-09-28T07:01:21.866Z,5.50
2017-09-28T07:03:50.199Z,7.50
2017-09-28T07:06:19.327Z,8.07
2017-09-28T07:08:47.688Z,10.37
2017-09-28T07:11:16.053Z,9.57
2017-09-28T07:13:45.169Z,9.37
2017-09-28T07:16:13.503Z,8.50
2017-09-28T07:18:41.861Z,7.50
2017-09-28T07:21:10.201Z,7.28
2017-09-28T07:23:39.326Z,7.60
2017-09-28T07:26:07.660Z,7.07
2017-09-28T07:28:35.997Z,8.40
2017-09-28T07:31:04.363Z,7.65
2017-09-28T07:33:32.697Z,7.93
2017-09-28T07:36:01.076Z,6.57
2017-09-28T07:38:29.412Z,7.17
2017-09-28T07:40:57.753Z,6.30
2017-09-28T07:43:26.892Z,6.77
2017-09-28T07:45:55.224Z,6.60
2017-09-28T07:48:24.357Z,6.00
2017-09-28T07:50:54.460Z,6.47
2017-09-28T07:53:23.557Z,7.67
2017-09-28T07:55:51.925Z,9.00
2017-09-28T07:58:21.024Z,8.87
2017-09-28T08:00:50.151Z,7.23
2017-09-28T08:03:18.484Z,7.77
2017-09-28T08:05:46.842Z,6.93
2017-09-28T08:08:15.186Z,7.50
2017-09-28T08:10:43.521Z,6.67
2017-09-28T08:13:11.892Z,6.40
2017-09-28T08:15:40.223Z,6.07
2017-09-28T08:18:08.588Z,6.23
2017-09-28T08:20:37.688Z,6.33
2017-09-28T08:23:06.795Z,5.72
2017-09-28T08:25:35.152Z,5.40
2017-09-28T08:28:03.491Z,5.37
2017-09-28T08:30:31.852Z,5.35
2017-09-28T08:33:00.188Z,6.78
2017-09-28T08:35:28.540Z,6.30
2017-09-28T08:37:56.905Z,6.20
2017-09-28T08:40:25.242Z,5.50
2017-09-28T08:42:54.375Z,6.10
2017-09-28T08:45:22.708Z,7.13
2017-09-28T08:47:51.043Z,6.60
2017-09-28T08:50:19.446Z,6.50
2017-09-28T08:52:47.792Z,5.97
2017-09-28T08:55:16.159Z,6.10
2017-09-28T08:57:44.498Z,7.30
2017-09-28T09:00:12.853Z,8.63
2017-09-28T09:02:41.187Z,6.97
2017-09-28T09:05:10.319Z,7.78
2017-09-28T09:07:38.663Z,9.70
2017-09-28T09:10:07.797Z,7.83
2017-09-28T09:12:36.127Z,7.00
2017-09-28T09:15:04.461Z,6.45
2017-09-28T09:17:32.821Z,7.93
2017-09-28T09:20:01.152Z,7.50
2017-09-28T09:22:29.504Z,7.97
2017-09-28T09:24:59.384Z,6.90
2017-09-28T09:27:28.526Z,8.37
2017-09-28T09:29:56.850Z,7.70
2017-09-28T09:32:25.978Z,7.50
2017-09-28T09:34:54.339Z,8.03
2017-09-28T09:37:23.484Z,7.60
2017-09-28T09:39:51.844Z,6.43
2017-09-28T09:42:20.184Z,7.33
2017-09-28T09:44:49.288Z,8.93
2017-09-28T09:47:18.412Z,8.35
2017-09-28T09:49:46.758Z,6.83
2017-09-28T09:52:15.889Z,8.20
2017-09-28T09:54:44.229Z,8.97
2017-09-28T09:57:12.564Z,8.25
2017-09-28T09:59:40.917Z,8.10
2017-09-28T10:02:09.256Z,8.13
2017-09-28T10:04:37.619Z,9.80
2017-09-28T10:07:12.621Z,8.70
2017-09-28T10:09:46.775Z,8.30
2017-09-28T10:12:18.281Z,8.90
2017-09-28T10:15:01.647Z,10.40
2017-09-28T10:17:29.998Z,10.27
2017-09-28T10:19:58.335Z,7.57
2017-09-28T10:22:27.435Z,9.10
2017-09-28T10:24:55.864Z,8.77
2017-09-28T10:27:24.229Z,8.17
2017-09-28T10:29:53.337Z,9.23
2017-09-28T10:32:21.675Z,8.80
2017-09-28T10:34:50.037Z,8.73
2017-09-28T10:37:18.382Z,9.18
2017-09-28T10:39:46.746Z,9.87
2017-09-28T10:42:15.852Z,8.80
2017-09-28T10:44:44.989Z,8.63
2017-09-28T10:47:13.331Z,10.43
2017-09-28T10:49:42.439Z,9.63
2017-09-28T10:52:10.804Z,10.20
2017-09-28T10:54:39.909Z,9.63
2017-09-28T10:57:09.040Z,10.45
2017-09-28T10:59:37.371Z,8.77
2017-09-28T11:02:05.711Z,8.43
2017-09-28T11:04:34.070Z,8.60
2017-09-28T11:07:03.350Z,9.70
2017-09-28T11:09:32.477Z,7.87
2017-09-28T11:12:00.812Z,8.80
2017-09-28T11:14:29.940Z,10.47
2017-09-28T11:16:58.268Z,8.20
2017-09-28T11:19:26.638Z,9.87
2017-09-28T11:21:55.012Z,9.77
2017-09-28T11:24:23.375Z,8.67
2017-09-28T11:26:51.765Z,10.83
2017-09-28T11:29:20.108Z,9.65
2017-09-28T11:31:49.203Z,9.10
2017-09-28T11:34:17.575Z,8.83
2017-09-28T11:36:46.687Z,8.13
2017-09-28T11:39:15.862Z,7.70
2017-09-28T11:41:44.205Z,9.60
2017-09-28T11:44:12.561Z,9.77
2017-09-28T11:46:40.928Z,9.70
2017-09-28T11:49:10.036Z,8.15
2017-09-28T11:51:38.373Z,8.57
2017-09-28T11:54:06.733Z,8.73
2017-09-28T11:56:35.096Z,10.00
2017-09-28T11:59:03.744Z,9.80
2017-09-28T12:01:32.855Z,9.50
2017-09-28T12:04:01.209Z,8.77
2017-09-28T12:06:30.355Z,10.07
2017-09-28T12:08:58.702Z,9.97
2017-09-28T12:11:27.835Z,10.20
2017-09-28T12:13:56.181Z,10.93
2017-09-28T12:16:25.280Z,10.40
2017-09-28T12:18:54.420Z,10.65
2017-09-28T12:21:22.792Z,9.70
2017-09-28T12:23:51.172Z,10.83
2017-09-28T12:26:19.508Z,9.20
2017-09-28T12:28:48.612Z,10.20
2017-09-28T12:31:17.744Z,10.73
2017-09-28T12:33:46.073Z,8.53
2017-09-28T12:36:14.433Z,9.57
2017-09-28T12:38:42.771Z,10.47
2017-09-28T12:41:11.133Z,8.60
2017-09-28T12:43:40.255Z,10.97
2017-09-28T12:46:08.609Z,10.55
2017-09-28T12:48:37.749Z,10.43
2017-09-28T12:51:06.086Z,10.40
2017-09-28T12:53:35.222Z,9.80
2017-09-28T12:56:03.563Z,9.65
2017-09-28T12:58:32.692Z,9.57
2017-09-28T13:01:01.044Z,10.27
2017-09-28T13:03:30.150Z,9.70
2017-09-28T13:05:59.291Z,10.40
2017-09-28T13:08:27.640Z,8.63
2017-09-28T13:10:56.005Z,8.50
2017-09-28T13:13:25.105Z,8.73
2017-09-28T13:15:54.206Z,8.40
2017-09-28T13:18:23.439Z,10.17
2017-09-28T13:20:51.784Z,8.40
2017-09-28T13:23:20.926Z,7.47
2017-09-28T13:25:49.273Z,8.80
2017-09-28T13:28:17.652Z,9.40
2017-09-28T13:30:46.015Z,9.00
2017-09-28T13:33:15.123Z,8.20
2017-09-28T13:35:44.260Z,8.90
2017-09-28T13:38:12.603Z,9.43
2017-09-28T13:40:41.713Z,9.20
2017-09-28T13:43:10.077Z,9.20
2017-09-28T13:45:39.180Z,10.03
2017-09-28T13:48:08.324Z,9.60
2017-09-28T13:50:36.661Z,7.90
2017-09-28T13:53:05.789Z,8.60
2017-09-28T13:55:34.119Z,9.70
2017-09-28T13:58:02.452Z,9.53
2017-09-28T14:00:30.816Z,9.53
2017-09-28T14:02:59.155Z,7.70
2017-09-28T14:05:27.515Z,8.00
2017-09-28T14:07:55.844Z,7.03
2017-09-28T14:10:24.944Z,7.70
2017-09-28T14:12:54.135Z,6.40
2017-09-28T14:15:23.236Z,6.50
2017-09-28T14:17:52.364Z,7.00
2017-09-28T14:20:20.740Z,7.20
2017-09-28T14:22:49.076Z,7.17
2017-09-28T14:25:17.441Z,7.82
2017-09-28T14:27:45.780Z,7.73
2017-09-28T14:30:14.135Z,6.93
2017-09-28T14:32:43.236Z,9.57
2017-09-28T14:35:12.332Z,9.10
2017-09-28T14:37:41.464Z,10.00
2017-09-28T14:40:09.796Z,8.70
2017-09-28T14:42:38.960Z,8.00
2017-09-28T14:45:07.287Z,7.80
2017-09-28T14:47:36.390Z,9.57
2017-09-28T14:50:04.784Z,8.53
2017-09-28T14:52:33.117Z,8.40
2017-09-28T14:55:01.484Z,9.67
2017-09-28T14:57:29.821Z,9.87
2017-09-28T14:59:58.159Z,8.63
2017-09-28T15:02:26.523Z,8.40
2017-09-28T15:04:54.857Z,9.20
2017-09-28T15:07:23.230Z,10.10
2017-09-28T15:09:52.335Z,7.40
2017-09-28T15:12:20.671Z,8.83
2017-09-28T15:14:49.041Z,9.17
2017-09-28T15:17:17.384Z,10.05
2017-09-28T15:19:45.753Z,8.30
2017-09-28T15:22:14.848Z,7.40
2017-09-28T15:24:43.990Z,8.17
2017-09-28T15:27:13.361Z,8.95
2017-09-28T15:29:41.695Z,8.30
2017-09-28T15:32:10.059Z,8.53
2017-09-28T15:34:38.391Z,8.37
2017-09-28T15:37:07.609Z,8.97
2017-09-28T15:39:36.650Z,9.13
2017-09-28T15:42:04.992Z,8.33
2017-09-28T15:44:33.356Z,10.20
2017-09-28T15:47:01.692Z,9.20
2017-09-28T15:49:30.071Z,11.43
2017-09-28T15:51:58.421Z,11.40
2017-09-28T15:54:26.786Z,11.50
2017-09-28T15:56:55.176Z,9.13
2017-09-28T15:59:23.547Z,8.95
2017-09-28T16:01:51.879Z,9.00
2017-09-28T16:04:20.244Z,10.03
2017-09-28T16:06:48.611Z,9.77
2017-09-28T16:09:16.950Z,7.83
2017-09-28T16:11:46.084Z,9.73
2017-09-28T16:14:14.421Z,9.07
2017-09-28T16:16:43.527Z,8.80
2017-09-28T16:19:12.675Z,9.07
2017-09-28T16:21:41.076Z,8.73
2017-09-28T16:24:09.445Z,7.20
2017-09-28T16:26:37.778Z,8.33
2017-09-28T16:29:06.119Z,7.53
2017-09-28T16:31:34.488Z,10.00
2017-09-28T16:34:02.826Z,7.53
2017-09-28T16:36:31.184Z,6.80
2017-09-28T16:39:00.285Z,5.73
2017-09-28T16:41:29.384Z,5.65
2017-09-28T16:43:58.509Z,5.68
2017-09-28T16:46:26.833Z,6.10
2017-09-28T16:48:55.195Z,6.13
2017-09-28T16:51:23.534Z,5.30
2017-09-28T16:53:51.878Z,5.37
2017-09-28T16:56:20.232Z,4.80
2017-09-28T16:58:48.569Z,5.70
2017-09-28T17:01:16.930Z,6.10
2017-09-28T17:03:46.049Z,5.30
2017-09-28T17:06:16.165Z,5.23
2017-09-28T17:08:44.924Z,4.90
2017-09-28T17:11:15.769Z,6.03
2017-09-28T17:13:44.554Z,5.63
2017-09-28T17:16:13.825Z,4.93
2017-09-28T17:18:42.644Z,5.67
2017-09-28T17:21:11.785Z,5.67
2017-09-28T17:23:40.129Z,6.03
2017-09-28T17:26:08.720Z,5.83
2017-09-28T17:28:37.846Z,6.60
2017-09-28T17:31:06.187Z,5.97
2017-09-28T17:33:34.556Z,5.83
2017-09-28T17:36:03.273Z,5.30
2017-09-28T17:38:32.430Z,7.90
2017-09-28T17:41:00.937Z,5.53
2017-09-28T17:43:29.653Z,5.82
2017-09-28T17:45:58.591Z,6.20
2017-09-28T17:48:27.215Z,11.37
2017-09-28T17:50:56.096Z,8.07
2017-09-28T17:53:25.734Z,7.30
2017-09-28T17:55:54.893Z,7.20
2017-09-28T17:58:23.225Z,7.10
2017-09-28T18:00:52.335Z,6.87
2017-09-28T18:03:20.816Z,7.43
2017-09-28T18:05:49.183Z,6.60
2017-09-28T18:08:17.572Z,6.30
2017-09-28T18:10:46.676Z,6.07
2017-09-28T18:13:15.052Z,5.90
2017-09-28T18:15:43.429Z,5.90
2017-09-28T18:18:12.577Z,7.60
2017-09-28T18:20:41.407Z,7.03
2017-09-28T18:23:10.524Z,6.70
2017-09-28T18:25:40.271Z,5.90
2017-09-28T18:28:09.081Z,6.50
2017-09-28T18:30:39.994Z,6.67
2017-09-28T18:33:09.127Z,6.57
2017-09-28T18:35:38.717Z,5.78
2017-09-28T18:38:07.116Z,7.50
2017-09-28T18:40:35.466Z,7.13
2017-09-28T18:43:13.151Z,6.77
2017-09-28T18:45:43.084Z,7.27
2017-09-28T18:48:12.366Z,8.87
2017-09-28T18:50:41.492Z,7.00
2017-09-28T18:53:10.623Z,9.63
2017-09-28T18:55:39.670Z,7.53
2017-09-28T18:58:08.072Z,9.30
2017-09-28T19:00:36.948Z,6.70
2017-09-28T19:03:07.567Z,7.20
2017-09-28T19:05:36.281Z,6.90
2017-09-28T19:08:07.225Z,6.67
2017-09-28T19:10:35.588Z,6.40
2017-09-28T19:13:03.991Z,6.30
2017-09-28T19:15:32.367Z,7.10
2017-09-28T19:18:00.718Z,6.57
2017-09-28T19:20:29.098Z,5.20
2017-09-28T19:22:57.458Z,6.43
2017-09-28T19:25:26.603Z,5.70
2017-09-28T19:27:55.374Z,6.33
2017-09-28T19:30:24.064Z,6.43
2017-09-28T19:32:52.478Z,6.70
2017-09-28T19:35:20.835Z,7.00
2017-09-28T19:37:49.215Z,7.07
2017-09-28T19:40:17.587Z,6.00
2017-09-28T19:42:45.990Z,7.27
2017-09-28T19:45:14.353Z,5.60
2017-09-28T19:47:42.789Z,6.50
2017-09-28T19:50:11.916Z,6.50
2017-09-28T19:52:40.304Z,5.97
2017-09-28T19:55:08.658Z,5.72
2017-09-28T19:57:37.802Z,6.18
2017-09-28T20:00:06.163Z,5.80
2017-09-28T20:02:34.556Z,6.10
2017-09-28T20:05:02.966Z,7.23
2017-09-28T20:07:32.103Z,7.30
2017-09-28T20:10:01.251Z,7.40
2017-09-28T20:12:29.622Z,6.90
2017-09-28T20:14:57.974Z,6.40
2017-09-28T20:17:26.411Z,7.03
2017-09-28T20:19:54.896Z,7.05
2017-09-28T20:22:23.280Z,7.13
2017-09-28T20:24:52.447Z,6.87
2017-09-28T20:27:20.818Z,6.00
2017-09-28T20:29:49.175Z,6.00
2017-09-28T20:32:18.278Z,6.77
2017-09-28T20:34:46.735Z,6.73
2017-09-28T20:37:15.084Z,7.77
2017-09-28T20:39:43.461Z,6.23
2017-09-28T20:42:11.821Z,6.30
2017-09-28T20:44:40.175Z,5.80
2017-09-28T20:47:09.323Z,6.27
2017-09-28T20:49:37.664Z,6.40
2017-09-28T20:52:06.101Z,6.23
2017-09-28T20:54:34.450Z,6.27
2017-09-28T20:57:02.781Z,6.00
2017-09-28T20:59:32.027Z,6.10
2017-09-28T21:02:00.539Z,6.77
2017-09-28T21:04:28.904Z,5.83
2017-09-28T21:06:57.243Z,6.30
2017-09-28T21:09:27.998Z,5.68
2017-09-28T21:11:56.369Z,5.67
2017-09-28T21:14:24.717Z,7.63
2017-09-28T21:16:53.247Z,6.63
2017-09-28T21:19:21.656Z,6.87
2017-09-28T21:21:50.300Z,6.43
2017-09-28T21:24:18.687Z,5.07
2017-09-28T21:26:47.021Z,6.00
2017-09-28T21:29:15.775Z,5.63
2017-09-28T21:31:44.940Z,5.78
2017-09-28T21:34:14.048Z,6.03
2017-09-28T21:36:43.181Z,7.03
2017-09-28T21:39:11.540Z,7.47
2017-09-28T21:41:39.905Z,6.20
2017-09-28T21:44:09.026Z,7.17
2017-09-28T21:46:37.388Z,7.13
2017-09-28T21:49:05.757Z,6.43
2017-09-28T21:51:34.875Z,6.80
2017-09-28T21:54:03.276Z,6.93
2017-09-28T21:56:31.618Z,6.83
2017-09-28T21:59:00.771Z,7.13
2017-09-28T22:01:29.111Z,7.33
2017-09-28T22:03:57.465Z,6.77
2017-09-28T22:06:26.624Z,7.40
2017-09-28T22:08:54.963Z,6.50
2017-09-28T22:11:24.126Z,6.17
2017-09-28T22:13:52.471Z,6.00
2017-09-28T22:16:20.805Z,6.43
2017-09-28T22:18:49.957Z,8.97
2017-09-28T22:21:18.312Z,7.60
2017-09-28T22:23:46.674Z,6.70
2017-09-28T22:26:15.779Z,7.43
2017-09-28T22:28:44.124Z,6.70
2017-09-28T22:31:12.488Z,6.93
2017-09-28T22:33:40.855Z,6.20
2017-09-28T22:36:09.225Z,6.60
2017-09-28T22:38:37.562Z,6.50
2017-09-28T22:41:06.661Z,6.20
2017-09-28T22:43:35.792Z,6.45
2017-09-28T22:46:04.118Z,6.87
2017-09-28T22:48:32.484Z,9.73
2017-09-28T22:51:00.815Z,8.57
2017-09-28T22:53:30.339Z,7.17
2017-09-28T22:55:58.705Z,7.63
2017-09-28T22:58:27.816Z,7.00
2017-09-28T23:00:56.189Z,7.10
2017-09-28T23:03:24.527Z,6.40
2017-09-28T23:05:52.879Z,6.20
2017-09-28T23:08:21.239Z,7.93
2017-09-28T23:10:49.571Z,6.32
2017-09-28T23:13:17.936Z,7.03
2017-09-28T23:15:46.264Z,5.37
2017-09-28T23:18:14.609Z,6.75
2017-09-28T23:20:43.040Z,5.67
2017-09-28T23:23:11.433Z,5.90
2017-09-28T23:25:40.609Z,6.47
2017-09-28T23:28:09.726Z,5.43
2017-09-28T23:30:38.113Z,7.00
2017-09-28T23:33:06.501Z,6.53
2017-09-28T23:35:34.840Z,6.10
2017-09-28T23:38:03.995Z,7.33
2017-09-28T23:40:33.093Z,6.33
2017-09-28T23:43:01.433Z,6.10
2017-09-28T23:45:29.788Z,5.87
2017-09-28T23:47:58.991Z,5.37
2017-09-28T23:50:28.115Z,8.10
2017-09-28T23:52:56.440Z,5.90
2017-09-28T23:55:24.778Z,6.27
2017-09-28T23:57:53.148Z,7.50
